createdAt,value
2018-12-18T00:00:00.959Z,51.48
2018-12-18T00:02:34.369Z,52.05
2018-12-18T00:05:15.814Z,53.92
2018-12-18T00:07:50.118Z,48.10
2018-12-18T00:10:29.430Z,53.25
2018-12-18T00:13:03.025Z,46.70
2018-12-18T00:15:36.407Z,48.35
2018-12-18T00:18:09.935Z,48.83
2018-12-18T00:20:43.466Z,48.05
2018-12-18T00:23:17.018Z,51.68
2018-12-18T00:25:50.565Z,47.03
2018-12-18T00:28:24.066Z,57.78
2018-12-18T00:30:58.028Z,51.13
2018-12-18T00:33:31.742Z,53.63
2018-12-18T00:36:05.374Z,48.78
2018-12-18T00:38:38.743Z,50.90
2018-12-18T00:41:12.410Z,52.45
2018-12-18T00:43:45.913Z,54.18
2018-12-18T00:46:19.571Z,53.63
2018-12-18T00:48:53.147Z,56.70
2018-12-18T00:51:26.843Z,50.60
2018-12-18T00:54:00.571Z,56.88
2018-12-18T00:56:34.034Z,52.95
2018-12-18T00:59:07.510Z,52.38
2018-12-18T01:01:43.016Z,53.92
2018-12-18T01:04:16.589Z,55.20
2018-12-18T01:06:49.984Z,55.03
2018-12-18T01:09:23.933Z,53.17
2018-12-18T01:11:57.373Z,49.48
2018-12-18T01:14:30.784Z,53.48
2018-12-18T01:17:04.310Z,50.38
2018-12-18T01:19:37.770Z,49.58
2018-12-18T01:22:11.253Z,45.98
2018-12-18T01:24:44.810Z,55.08
2018-12-18T01:27:18.179Z,53.73
2018-12-18T01:29:51.525Z,55.38
2018-12-18T01:32:25.170Z,56.55
2018-12-18T01:34:58.465Z,51.15
2018-12-18T01:37:31.782Z,56.10
2018-12-18T01:40:05.301Z,58.45
2018-12-18T01:42:39.905Z,61.28
2018-12-18T01:45:13.341Z,48.52
2018-12-18T01:47:46.735Z,55.15
2018-12-18T01:50:20.009Z,50.88
2018-12-18T01:52:53.273Z,58.28
2018-12-18T01:55:26.710Z,54.10
2018-12-18T01:58:00.117Z,53.23
2018-12-18T02:00:33.525Z,54.85
2018-12-18T02:03:06.982Z,54.50
2018-12-18T02:05:40.467Z,57.73
2018-12-18T02:08:13.757Z,54.65
2018-12-18T02:10:47.398Z,55.95
2018-12-18T02:13:20.813Z,58.33
2018-12-18T02:15:54.279Z,57.03
2018-12-18T02:18:27.956Z,56.48
2018-12-18T02:21:01.649Z,56.18
2018-12-18T02:23:35.102Z,55.52
2018-12-18T02:26:08.711Z,57.75
2018-12-18T02:28:42.254Z,59.65
2018-12-18T02:31:15.697Z,55.55
2018-12-18T02:33:48.970Z,54.75
2018-12-18T02:36:22.268Z,54.10
2018-12-18T02:38:55.778Z,56.45
2018-12-18T02:41:29.417Z,57.60
2018-12-18T02:44:03.030Z,57.45
2018-12-18T02:46:36.337Z,57.25
2018-12-18T02:49:09.951Z,51.92
2018-12-18T02:51:43.385Z,51.92
2018-12-18T02:54:16.879Z,59.98
2018-12-18T02:56:50.349Z,49.18
2018-12-18T02:59:23.776Z,50.50
2018-12-18T03:01:57.367Z,49.85
2018-12-18T03:04:30.694Z,52.20
2018-12-18T03:07:04.274Z,48.02
2018-12-18T03:09:37.609Z,48.17
2018-12-18T03:12:11.070Z,51.00
2018-12-18T03:14:44.390Z,53.87
2018-12-18T03:17:17.915Z,50.30
2018-12-18T03:19:51.506Z,49.18
2018-12-18T03:22:24.961Z,54.88
2018-12-18T03:24:58.472Z,52.05
2018-12-18T03:27:32.090Z,49.38
2018-12-18T03:30:05.567Z,52.60
2018-12-18T03:32:47.206Z,51.55
2018-12-18T03:35:20.969Z,54.77
2018-12-18T03:37:54.481Z,55.43
2018-12-18T03:40:28.029Z,53.42
2018-12-18T03:43:01.706Z,51.33
2018-12-18T03:45:35.281Z,58.55
2018-12-18T03:48:08.786Z,52.30
2018-12-18T03:50:42.332Z,56.05
2018-12-18T03:53:15.774Z,49.90
2018-12-18T03:55:49.537Z,53.92
2018-12-18T03:58:22.894Z,49.98
2018-12-18T04:00:56.093Z,52.88
2018-12-18T04:03:30.494Z,50.28
2018-12-18T04:06:03.978Z,50.90
2018-12-18T04:08:37.574Z,51.70
2018-12-18T04:11:11.032Z,49.45
2018-12-18T04:13:44.440Z,50.70
2018-12-18T04:16:17.841Z,53.15
2018-12-18T04:18:51.337Z,51.08
2018-12-18T04:21:24.526Z,51.65
2018-12-18T04:23:57.808Z,51.05
2018-12-18T04:26:31.290Z,48.95
2018-12-18T04:29:04.737Z,50.12
2018-12-18T04:31:38.158Z,52.13
2018-12-18T04:34:11.526Z,55.17
2018-12-18T04:36:45.093Z,47.50
2018-12-18T04:39:18.485Z,47.93
2018-12-18T04:41:51.954Z,50.55
2018-12-18T04:44:25.416Z,46.42
2018-12-18T04:46:58.730Z,50.08
2018-12-18T04:49:32.389Z,48.92
2018-12-18T04:52:05.766Z,49.35
2018-12-18T04:54:39.463Z,54.30
2018-12-18T04:57:13.161Z,49.45
2018-12-18T04:59:46.778Z,55.45
2018-12-18T05:02:20.561Z,51.95
2018-12-18T05:04:54.159Z,51.23
2018-12-18T05:07:28.199Z,54.00
2018-12-18T05:10:01.875Z,46.48
2018-12-18T05:12:35.571Z,50.45
2018-12-18T05:15:09.180Z,49.00
2018-12-18T05:17:42.697Z,44.67
2018-12-18T05:20:16.101Z,50.00
2018-12-18T05:22:49.899Z,48.63
2018-12-18T05:25:23.601Z,52.30
2018-12-18T05:27:57.408Z,55.15
2018-12-18T05:30:30.917Z,53.42
2018-12-18T05:33:04.617Z,51.13
2018-12-18T05:35:38.212Z,48.23
2018-12-18T05:38:11.614Z,48.08
2018-12-18T05:40:46.030Z,50.05
2018-12-18T05:43:19.512Z,55.83
2018-12-18T05:45:52.924Z,46.42
2018-12-18T05:48:26.429Z,44.83
2018-12-18T05:50:59.822Z,46.20
2018-12-18T05:53:33.426Z,46.02
2018-12-18T05:56:06.930Z,50.70
2018-12-18T05:58:40.506Z,52.65
2018-12-18T06:01:14.438Z,52.43
2018-12-18T06:03:48.033Z,47.30
2018-12-18T06:06:21.621Z,48.28
2018-12-18T06:08:55.325Z,46.05
2018-12-18T06:11:29.046Z,45.40
2018-12-18T06:14:02.863Z,47.00
2018-12-18T06:16:36.498Z,51.15
2018-12-18T06:19:10.237Z,46.60
2018-12-18T06:21:44.062Z,47.48
2018-12-18T06:24:17.780Z,50.25
2018-12-18T06:26:51.362Z,49.05
2018-12-18T06:29:26.080Z,45.73
2018-12-18T06:31:59.680Z,47.55
2018-12-18T06:34:33.456Z,45.52
2018-12-18T06:37:06.999Z,49.90
2018-12-18T06:39:40.714Z,48.75
2018-12-18T06:42:15.444Z,41.55
2018-12-18T06:44:49.025Z,44.95
2018-12-18T06:47:24.076Z,42.95
2018-12-18T06:49:57.778Z,43.78
2018-12-18T06:52:31.274Z,44.00
2018-12-18T06:55:05.184Z,50.80
2018-12-18T06:57:38.765Z,51.20
2018-12-18T07:00:12.393Z,46.58
2018-12-18T07:02:46.089Z,54.63
2018-12-18T07:05:19.775Z,51.85
2018-12-18T07:07:57.335Z,47.93
2018-12-18T07:10:28.761Z,52.93
2018-12-18T07:13:02.402Z,49.60
2018-12-18T07:15:35.814Z,50.55
2018-12-18T07:18:09.290Z,46.00
2018-12-18T07:20:42.625Z,49.83
2018-12-18T07:23:17.007Z,49.93
2018-12-18T07:25:50.407Z,55.45
2018-12-18T07:28:24.030Z,48.70
2018-12-18T07:30:57.518Z,48.90
2018-12-18T07:33:31.070Z,51.08
2018-12-18T07:36:04.707Z,48.75
2018-12-18T07:38:38.272Z,52.80
2018-12-18T07:41:11.891Z,51.88
2018-12-18T07:43:45.286Z,58.28
2018-12-18T07:46:18.750Z,54.23
2018-12-18T07:48:53.696Z,46.95
2018-12-18T07:51:27.233Z,55.23
2018-12-18T07:54:00.806Z,45.17
2018-12-18T07:56:34.186Z,43.70
2018-12-18T07:59:07.689Z,43.25
2018-12-18T08:01:41.427Z,43.78
2018-12-18T08:04:14.875Z,49.77
2018-12-18T08:06:48.073Z,45.33
2018-12-18T08:09:21.405Z,43.42
2018-12-18T08:11:54.774Z,43.45
2018-12-18T08:14:28.197Z,40.20
2018-12-18T08:17:01.737Z,42.38
2018-12-18T08:19:35.194Z,36.05
2018-12-18T08:22:08.675Z,42.50
2018-12-18T08:24:42.186Z,34.50
2018-12-18T08:27:15.764Z,45.15
2018-12-18T08:29:49.093Z,38.28
2018-12-18T08:32:22.485Z,37.20
2018-12-18T08:34:56.043Z,42.67
2018-12-18T08:37:29.534Z,33.73
2018-12-18T08:40:03.113Z,32.65
2018-12-18T08:42:37.732Z,39.45
2018-12-18T08:45:11.297Z,34.92
2018-12-18T08:47:45.142Z,31.85
2018-12-18T08:50:18.730Z,33.92
2018-12-18T08:52:52.026Z,39.18
2018-12-18T08:55:25.650Z,35.98
2018-12-18T08:58:00.297Z,35.03
2018-12-18T09:00:33.562Z,36.03
2018-12-18T09:03:07.153Z,39.55
2018-12-18T09:05:43.383Z,37.03
2018-12-18T09:08:16.116Z,40.80
2018-12-18T09:10:49.637Z,34.63
2018-12-18T09:13:22.954Z,38.63
2018-12-18T09:15:57.462Z,40.67
2018-12-18T09:18:31.032Z,35.52
2018-12-18T09:21:04.838Z,35.95
2018-12-18T09:23:38.251Z,37.17
2018-12-18T09:26:11.736Z,42.15
2018-12-18T09:28:45.176Z,36.83
2018-12-18T09:31:18.680Z,36.38
2018-12-18T09:33:51.917Z,45.12
2018-12-18T09:36:25.237Z,37.83
2018-12-18T09:39:04.581Z,42.75
2018-12-18T09:41:38.857Z,39.78
2018-12-18T09:44:15.450Z,39.83
2018-12-18T09:46:50.946Z,35.83
2018-12-18T09:49:24.726Z,38.80
2018-12-18T09:51:58.127Z,39.73
2018-12-18T09:54:31.453Z,36.63
2018-12-18T09:57:09.492Z,37.93
2018-12-18T09:59:43.222Z,44.42
2018-12-18T10:02:16.669Z,40.10
2018-12-18T10:04:50.053Z,37.95
2018-12-18T10:07:23.459Z,37.40
2018-12-18T10:09:56.829Z,40.88
2018-12-18T10:12:36.161Z,42.83
2018-12-18T10:15:09.559Z,38.02
2018-12-18T10:17:44.320Z,41.63
2018-12-18T10:20:17.872Z,39.75
2018-12-18T10:22:52.438Z,41.23
2018-12-18T10:25:25.921Z,41.40
2018-12-18T10:27:59.357Z,38.70
2018-12-18T10:30:32.802Z,34.67
2018-12-18T10:33:06.705Z,37.63
2018-12-18T10:35:40.147Z,39.38
2018-12-18T10:38:13.631Z,33.67
2018-12-18T10:40:46.939Z,36.73
2018-12-18T10:43:20.585Z,33.83
2018-12-18T10:45:54.187Z,36.80
2018-12-18T10:48:27.750Z,34.50
2018-12-18T10:51:01.298Z,36.05
2018-12-18T10:53:34.922Z,32.58
2018-12-18T10:56:08.374Z,42.27
2018-12-18T10:58:41.766Z,40.28
2018-12-18T11:01:21.261Z,36.05
2018-12-18T11:03:54.854Z,37.03
2018-12-18T11:06:28.154Z,37.17
2018-12-18T11:09:01.867Z,35.88
2018-12-18T11:11:37.147Z,36.05
2018-12-18T11:14:10.654Z,37.42
2018-12-18T11:16:44.037Z,34.18
2018-12-18T11:19:17.715Z,38.23
2018-12-18T11:21:51.277Z,41.20
2018-12-18T11:24:24.864Z,41.10
2018-12-18T11:26:58.508Z,40.38
2018-12-18T11:29:31.996Z,42.67
2018-12-18T11:32:05.529Z,35.10
2018-12-18T11:34:39.287Z,42.00
2018-12-18T11:37:12.883Z,41.00
2018-12-18T11:39:46.479Z,40.50
2018-12-18T11:42:20.063Z,36.73
2018-12-18T11:44:53.494Z,42.30
2018-12-18T11:47:26.922Z,40.12
2018-12-18T11:50:00.576Z,39.70
2018-12-18T11:52:34.107Z,44.00
2018-12-18T11:55:07.927Z,40.17
2018-12-18T11:57:41.412Z,39.83
2018-12-18T12:00:16.561Z,38.48
2018-12-18T12:02:49.972Z,40.95
2018-12-18T12:05:25.642Z,37.80
2018-12-18T12:07:59.084Z,38.48
2018-12-18T12:10:32.586Z,42.27
2018-12-18T12:13:05.973Z,38.45
2018-12-18T12:15:39.381Z,38.17
2018-12-18T12:18:12.683Z,34.65
2018-12-18T12:20:46.049Z,38.42
2018-12-18T12:23:20.067Z,31.10
2018-12-18T12:25:53.522Z,31.85
2018-12-18T12:28:26.900Z,36.68
2018-12-18T12:31:00.437Z,34.03
2018-12-18T12:33:33.798Z,38.90
2018-12-18T12:36:07.366Z,38.35
2018-12-18T12:38:40.902Z,32.17
2018-12-18T12:41:14.218Z,37.10
2018-12-18T12:43:47.645Z,38.58
2018-12-18T12:46:22.368Z,34.83
2018-12-18T12:48:55.844Z,31.57
2018-12-18T12:51:29.327Z,31.15
2018-12-18T12:54:02.620Z,28.75
2018-12-18T12:56:36.071Z,32.95
2018-12-18T12:59:09.532Z,33.58
2018-12-18T13:01:42.899Z,33.83
2018-12-18T13:04:16.187Z,29.20
2018-12-18T13:06:49.821Z,30.55
2018-12-18T13:09:23.310Z,29.18
2018-12-18T13:11:56.744Z,23.00
2018-12-18T13:14:30.138Z,32.20
2018-12-18T13:17:03.834Z,25.72
2018-12-18T13:19:37.522Z,26.40
2018-12-18T13:22:11.090Z,22.17
2018-12-18T13:24:44.635Z,25.65
2018-12-18T13:27:18.222Z,25.75
2018-12-18T13:29:51.869Z,27.60
2018-12-18T13:32:25.352Z,28.98
2018-12-18T13:34:59.295Z,26.07
2018-12-18T13:37:32.863Z,24.87
2018-12-18T13:40:06.331Z,24.45
2018-12-18T13:42:39.727Z,21.48
2018-12-18T13:45:13.056Z,27.40
2018-12-18T13:47:46.622Z,21.25
2018-12-18T13:50:20.206Z,24.72
2018-12-18T13:52:53.602Z,24.23
2018-12-18T13:55:27.035Z,21.23
2018-12-18T13:58:00.534Z,19.82
2018-12-18T14:00:33.972Z,23.12
2018-12-18T14:03:07.413Z,18.40
2018-12-18T14:05:40.651Z,16.17
2018-12-18T14:08:14.176Z,16.93
2018-12-18T14:10:47.794Z,15.63
2018-12-18T14:13:21.534Z,15.45
2018-12-18T14:15:54.905Z,14.35
2018-12-18T14:18:28.288Z,14.25
2018-12-18T14:21:01.794Z,15.70
2018-12-18T14:23:35.346Z,19.98
2018-12-18T14:26:08.710Z,16.02
2018-12-18T14:28:42.332Z,12.93
2018-12-18T14:31:15.749Z,13.90
2018-12-18T14:33:49.236Z,18.32
2018-12-18T14:36:22.877Z,16.48
2018-12-18T14:38:56.320Z,17.95
2018-12-18T14:41:29.651Z,14.43
2018-12-18T14:44:03.271Z,17.02
2018-12-18T14:46:36.770Z,19.48
2018-12-18T14:49:10.113Z,19.92
2018-12-18T14:51:43.357Z,15.50
2018-12-18T14:54:17.058Z,21.68
2018-12-18T14:56:50.514Z,17.67
2018-12-18T14:59:24.640Z,15.32
2018-12-18T15:01:58.329Z,15.38
2018-12-18T15:04:31.840Z,23.45
2018-12-18T15:07:06.462Z,19.45
2018-12-18T15:09:39.937Z,19.20
2018-12-18T15:12:14.138Z,18.95
2018-12-18T15:14:47.551Z,17.62
2018-12-18T15:17:21.309Z,23.35
2018-12-18T15:19:54.700Z,17.73
2018-12-18T15:22:28.229Z,23.25
2018-12-18T15:25:01.822Z,19.67
2018-12-18T15:27:35.698Z,17.17
2018-12-18T15:30:09.834Z,23.35
2018-12-18T15:32:43.521Z,17.42
2018-12-18T15:35:17.152Z,18.25
2018-12-18T15:37:51.475Z,15.78
2018-12-18T15:40:24.958Z,17.73
2018-12-18T15:42:58.511Z,12.60
2018-12-18T15:45:32.005Z,15.43
2018-12-18T15:48:05.301Z,16.90
2018-12-18T15:50:38.942Z,14.83
2018-12-18T15:53:12.554Z,15.00
2018-12-18T15:55:46.010Z,12.35
2018-12-18T15:58:19.764Z,17.60
2018-12-18T16:00:53.288Z,13.55
2018-12-18T16:03:26.647Z,14.18
2018-12-18T16:06:00.120Z,13.32
2018-12-18T16:08:33.314Z,16.35
2018-12-18T16:11:06.751Z,15.08
2018-12-18T16:13:40.235Z,15.85
2018-12-18T16:16:15.141Z,15.95
2018-12-18T16:18:49.402Z,18.37
2018-12-18T16:21:22.755Z,15.68
2018-12-18T16:23:56.253Z,13.13
2018-12-18T16:26:29.607Z,18.77
2018-12-18T16:29:04.122Z,12.93
2018-12-18T16:31:37.706Z,17.45
2018-12-18T16:34:11.195Z,18.07
2018-12-18T16:36:44.749Z,12.50
2018-12-18T16:39:18.346Z,14.38
2018-12-18T16:41:51.804Z,12.88
2018-12-18T16:44:25.266Z,14.55
2018-12-18T16:46:58.724Z,12.95
2018-12-18T16:49:32.069Z,14.73
2018-12-18T16:52:05.768Z,16.32
2018-12-18T16:54:39.261Z,11.97
2018-12-18T16:57:13.368Z,12.55
2018-12-18T16:59:47.089Z,11.12
2018-12-18T17:02:20.951Z,12.78
2018-12-18T17:04:54.513Z,14.78
2018-12-18T17:07:29.701Z,14.63
2018-12-18T17:10:04.123Z,9.80
2018-12-18T17:12:39.660Z,10.88
2018-12-18T17:15:13.177Z,11.48
2018-12-18T17:17:46.937Z,14.65
2018-12-18T17:20:20.264Z,10.70
2018-12-18T17:22:54.074Z,12.33
2018-12-18T17:25:27.434Z,11.97
2018-12-18T17:28:00.983Z,16.85
2018-12-18T17:30:34.794Z,18.15
2018-12-18T17:33:08.391Z,14.45
2018-12-18T17:35:42.141Z,17.37
2018-12-18T17:38:15.927Z,15.75
2018-12-18T17:40:49.574Z,14.10
2018-12-18T17:43:23.454Z,10.48
2018-12-18T17:45:56.917Z,14.65
2018-12-18T17:48:30.339Z,13.48
2018-12-18T17:51:04.025Z,10.70
2018-12-18T17:53:37.471Z,15.32
2018-12-18T17:56:10.957Z,14.65
2018-12-18T17:58:44.366Z,15.50
2018-12-18T18:01:24.998Z,16.15
2018-12-18T18:03:58.678Z,17.40
2018-12-18T18:06:32.133Z,12.68
2018-12-18T18:09:07.884Z,12.82
2018-12-18T18:11:41.282Z,14.60
2018-12-18T18:14:14.558Z,15.78
2018-12-18T18:16:47.915Z,16.02
2018-12-18T18:19:21.419Z,12.53
2018-12-18T18:21:54.881Z,13.18
2018-12-18T18:24:28.403Z,11.65
2018-12-18T18:27:01.919Z,17.17
2018-12-18T18:29:35.333Z,14.83
2018-12-18T18:32:08.535Z,15.17
2018-12-18T18:34:42.702Z,13.38
2018-12-18T18:37:16.015Z,12.63
2018-12-18T18:39:49.362Z,14.27
2018-12-18T18:42:22.634Z,13.15
2018-12-18T18:44:56.095Z,13.90
2018-12-18T18:47:29.738Z,11.90
2018-12-18T18:50:04.797Z,14.28
2018-12-18T18:52:38.213Z,13.57
2018-12-18T18:55:11.681Z,11.05
2018-12-18T18:57:45.059Z,13.07
2018-12-18T19:00:18.791Z,14.53
2018-12-18T19:02:52.906Z,13.80
2018-12-18T19:05:26.439Z,17.52
2018-12-18T19:07:59.874Z,15.50
2018-12-18T19:10:33.317Z,18.23
2018-12-18T19:13:06.804Z,17.15
2018-12-18T19:15:40.429Z,16.07
2018-12-18T19:18:13.765Z,14.77
2018-12-18T19:20:47.427Z,12.80
2018-12-18T19:23:20.967Z,14.37
2018-12-18T19:25:54.402Z,14.73
2018-12-18T19:28:28.027Z,19.50
2018-12-18T19:31:01.578Z,15.37
2018-12-18T19:33:36.982Z,14.50
2018-12-18T19:36:10.859Z,12.88
2018-12-18T19:38:44.311Z,11.53
2018-12-18T19:41:17.858Z,13.03
2018-12-18T19:43:51.528Z,11.53
2018-12-18T19:46:25.016Z,13.68
2018-12-18T19:48:58.412Z,18.42
2018-12-18T19:51:31.840Z,13.80
2018-12-18T19:54:05.409Z,14.45
2018-12-18T19:56:39.090Z,17.20
2018-12-18T19:59:12.462Z,15.03
2018-12-18T20:01:46.041Z,14.60
2018-12-18T20:04:19.456Z,12.87
2018-12-18T20:06:53.152Z,10.72
2018-12-18T20:09:26.728Z,12.90
2018-12-18T20:12:00.111Z,13.23
2018-12-18T20:14:33.691Z,13.55
2018-12-18T20:17:07.578Z,15.23
2018-12-18T20:19:41.607Z,12.87
2018-12-18T20:22:15.540Z,14.53
2018-12-18T20:24:48.911Z,12.80
2018-12-18T20:27:22.587Z,13.47
2018-12-18T20:29:56.321Z,12.93
2018-12-18T20:32:29.791Z,17.00
2018-12-18T20:35:03.553Z,14.55
2018-12-18T20:37:38.445Z,16.70
2018-12-18T20:40:11.957Z,15.63
2018-12-18T20:42:52.075Z,14.25
2018-12-18T20:45:25.729Z,13.97
2018-12-18T20:47:59.021Z,19.77
2018-12-18T20:50:37.553Z,15.07
2018-12-18T20:53:12.778Z,22.27
2018-12-18T20:55:46.466Z,16.30
2018-12-18T20:58:20.189Z,20.50
2018-12-18T21:03:32.647Z,18.83
2018-12-18T21:06:06.359Z,18.83
2018-12-18T21:08:39.906Z,18.85
2018-12-18T21:11:13.379Z,17.03
2018-12-18T21:13:46.949Z,17.87
2018-12-18T21:16:20.581Z,18.45
2018-12-18T21:18:53.977Z,16.27
2018-12-18T21:21:27.516Z,19.27
2018-12-18T21:24:08.108Z,19.10
2018-12-18T21:26:41.850Z,16.73
2018-12-18T21:29:15.493Z,16.17
2018-12-18T21:31:49.208Z,20.25
2018-12-18T21:34:23.034Z,22.07
2018-12-18T21:36:56.580Z,17.90
2018-12-18T21:39:30.161Z,17.70
2018-12-18T21:42:03.844Z,18.80
2018-12-18T21:44:37.548Z,18.17
2018-12-18T21:47:11.045Z,19.53
2018-12-18T21:49:44.695Z,16.80
2018-12-18T21:52:18.368Z,18.63
2018-12-18T21:54:51.677Z,15.60
2018-12-18T21:57:25.019Z,15.43
2018-12-18T21:59:58.497Z,16.73
2018-12-18T22:02:31.849Z,16.23
2018-12-18T22:05:06.572Z,15.40
2018-12-18T22:07:40.131Z,17.20
2018-12-18T22:10:13.749Z,18.10
2018-12-18T22:12:47.171Z,19.80
2018-12-18T22:15:20.593Z,15.67
2018-12-18T22:17:54.082Z,23.20
2018-12-18T22:20:27.401Z,19.07
2018-12-18T22:23:01.035Z,17.47
2018-12-18T22:25:34.323Z,18.70
2018-12-18T22:28:08.102Z,19.80
2018-12-18T22:30:41.437Z,14.47
2018-12-18T22:33:15.065Z,19.53
2018-12-18T22:35:48.584Z,14.57
2018-12-18T22:38:22.079Z,17.83
2018-12-18T22:40:56.805Z,14.83
2018-12-18T22:43:30.371Z,17.37
2018-12-18T22:46:03.946Z,19.33
2018-12-18T22:48:37.491Z,15.70
2018-12-18T22:51:11.069Z,16.03
2018-12-18T22:53:44.445Z,15.27
2018-12-18T22:56:17.932Z,16.10
2018-12-18T22:58:51.401Z,15.03
2018-12-18T23:01:30.699Z,15.47
2018-12-18T23:04:04.323Z,15.07
2018-12-18T23:06:37.574Z,15.47
2018-12-18T23:09:15.305Z,20.07
2018-12-18T23:11:48.736Z,17.07
2018-12-18T23:14:22.094Z,15.77
2018-12-18T23:16:55.573Z,16.23
2018-12-18T23:19:29.207Z,14.27
2018-12-18T23:22:02.902Z,18.20
2018-12-18T23:24:36.399Z,17.23
2018-12-18T23:27:10.933Z,15.60
2018-12-18T23:29:44.854Z,19.33
2018-12-18T23:32:18.555Z,14.15
2018-12-18T23:34:52.198Z,14.40
2018-12-18T23:37:25.733Z,19.90
2018-12-18T23:39:59.104Z,16.00
2018-12-18T23:42:32.650Z,19.77
2018-12-18T23:45:06.396Z,17.43
2018-12-18T23:47:40.047Z,19.63
2018-12-18T23:50:13.689Z,16.90
2018-12-18T23:52:47.041Z,17.53
2018-12-18T23:55:20.400Z,18.20
2018-12-18T23:57:53.703Z,19.60
